sensor_id;sensor_type;location;lat;lon;timestamp;P1;durP1;ratioP1;P2;durP2;ratioP2
72085;SDS011;64750;52.134;5.424;2023-05-10T00:02:23;12.85;;;10.85;;
72085;SDS011;64750;52.134;5.424;2023-05-10T00:04:50;13.98;;;11.13;;
72085;SDS011;64750;52.134;5.424;2023-05-10T00:07:17;12.63;;;10.82;;
72085;SDS011;64750;52.134;5.424;2023-05-10T00:09:43;15.30;;;10.48;;
72085;SDS011;64750;52.134;5.424;2023-05-10T00:12:10;17.67;;;11.20;;
72085;SDS011;64750;52.134;5.424;2023-05-10T00:14:36;13.57;;;11.68;;
72085;SDS011;64750;52.134;5.424;2023-05-10T00:17:03;16.67;;;11.73;;
72085;SDS011;64750;52.134;5.424;2023-05-10T00:19:29;16.50;;;12.85;;
72085;SDS011;64750;52.134;5.424;2023-05-10T00:21:55;18.85;;;12.43;;
72085;SDS011;64750;52.134;5.424;2023-05-10T00:24:22;18.67;;;13.37;;
72085;SDS011;64750;52.134;5.424;2023-05-10T00:26:48;20.10;;;13.63;;
72085;SDS011;64750;52.134;5.424;2023-05-10T00:29:15;20.05;;;14.55;;
72085;SDS011;64750;52.134;5.424;2023-05-10T00:31:41;23.45;;;15.10;;
72085;SDS011;64750;52.134;5.424;2023-05-10T00:34:07;25.75;;;16.40;;
72085;SDS011;64750;52.134;5.424;2023-05-10T00:36:34;23.47;;;16.07;;
72085;SDS011;64750;52.134;5.424;2023-05-10T00:39:00;22.92;;;15.75;;
72085;SDS011;64750;52.134;5.424;2023-05-10T00:41:27;21.02;;;14.77;;
72085;SDS011;64750;52.134;5.424;2023-05-10T00:43:53;23.85;;;15.77;;
72085;SDS011;64750;52.134;5.424;2023-05-10T00:46:20;26.60;;;15.85;;
72085;SDS011;64750;52.134;5.424;2023-05-10T00:48:46;29.03;;;18.00;;
72085;SDS011;64750;52.134;5.424;2023-05-10T00:51:13;28.05;;;17.92;;
72085;SDS011;64750;52.134;5.424;2023-05-10T00:53:40;31.85;;;19.02;;
72085;SDS011;64750;52.134;5.424;2023-05-10T00:56:06;33.90;;;20.75;;
72085;SDS011;64750;52.134;5.424;2023-05-10T00:58:33;36.83;;;20.08;;
72085;SDS011;64750;52.134;5.424;2023-05-10T01:00:59;37.43;;;21.87;;
72085;SDS011;64750;52.134;5.424;2023-05-10T01:03:27;40.47;;;22.33;;
72085;SDS011;64750;52.134;5.424;2023-05-10T01:05:54;39.50;;;20.27;;
72085;SDS011;64750;52.134;5.424;2023-05-10T01:08:20;41.88;;;21.33;;
72085;SDS011;64750;52.134;5.424;2023-05-10T01:10:47;39.45;;;21.13;;
72085;SDS011;64750;52.134;5.424;2023-05-10T01:13:18;41.00;;;21.63;;
72085;SDS011;64750;52.134;5.424;2023-05-10T01:16:06;37.53;;;20.38;;
72085;SDS011;64750;52.134;5.424;2023-05-10T01:18:34;40.00;;;20.88;;
72085;SDS011;64750;52.134;5.424;2023-05-10T01:21:07;41.75;;;21.35;;
72085;SDS011;64750;52.134;5.424;2023-05-10T01:33:01;35.05;;;19.20;;
72085;SDS011;64750;52.134;5.424;2023-05-10T01:38:11;41.25;;;20.67;;
72085;SDS011;64750;52.134;5.424;2023-05-10T01:43:33;40.63;;;20.23;;
72085;SDS011;64750;52.134;5.424;2023-05-10T01:46:08;36.00;;;19.63;;
72085;SDS011;64750;52.134;5.424;2023-05-10T01:48:41;41.33;;;19.88;;
72085;SDS011;64750;52.134;5.424;2023-05-10T01:51:19;38.03;;;19.60;;
72085;SDS011;64750;52.134;5.424;2023-05-10T01:53:49;38.90;;;20.37;;
72085;SDS011;64750;52.134;5.424;2023-05-10T01:56:20;41.70;;;20.50;;
72085;SDS011;64750;52.134;5.424;2023-05-10T01:58:52;42.95;;;22.83;;
72085;SDS011;64750;52.134;5.424;2023-05-10T02:01:20;45.42;;;22.15;;
72085;SDS011;64750;52.134;5.424;2023-05-10T02:03:48;41.90;;;20.40;;
72085;SDS011;64750;52.134;5.424;2023-05-10T02:06:18;41.60;;;20.73;;
72085;SDS011;64750;52.134;5.424;2023-05-10T02:08:46;46.13;;;21.63;;
72085;SDS011;64750;52.134;5.424;2023-05-10T02:11:15;44.40;;;22.45;;
72085;SDS011;64750;52.134;5.424;2023-05-10T02:13:44;38.83;;;19.95;;
72085;SDS011;64750;52.134;5.424;2023-05-10T02:16:13;47.17;;;21.15;;
72085;SDS011;64750;52.134;5.424;2023-05-10T02:18:42;40.60;;;20.13;;
72085;SDS011;64750;52.134;5.424;2023-05-10T02:21:10;41.13;;;20.33;;
72085;SDS011;64750;52.134;5.424;2023-05-10T02:23:37;38.47;;;20.25;;
72085;SDS011;64750;52.134;5.424;2023-05-10T02:26:05;42.95;;;21.00;;
72085;SDS011;64750;52.134;5.424;2023-05-10T02:28:32;43.63;;;22.27;;
72085;SDS011;64750;52.134;5.424;2023-05-10T02:31:01;41.83;;;21.80;;
72085;SDS011;64750;52.134;5.424;2023-05-10T02:33:28;43.42;;;20.73;;
72085;SDS011;64750;52.134;5.424;2023-05-10T02:35:56;42.30;;;21.73;;
72085;SDS011;64750;52.134;5.424;2023-05-10T02:38:23;38.63;;;20.40;;
72085;SDS011;64750;52.134;5.424;2023-05-10T02:40:51;41.25;;;21.75;;
72085;SDS011;64750;52.134;5.424;2023-05-10T02:43:19;37.37;;;19.80;;
72085;SDS011;64750;52.134;5.424;2023-05-10T02:45:49;42.45;;;21.27;;
72085;SDS011;64750;52.134;5.424;2023-05-10T02:48:16;45.30;;;20.80;;
72085;SDS011;64750;52.134;5.424;2023-05-10T02:50:43;41.50;;;21.83;;
72085;SDS011;64750;52.134;5.424;2023-05-10T02:53:11;42.85;;;22.75;;
72085;SDS011;64750;52.134;5.424;2023-05-10T02:55:45;46.50;;;21.63;;
72085;SDS011;64750;52.134;5.424;2023-05-10T02:58:17;47.83;;;22.13;;
72085;SDS011;64750;52.134;5.424;2023-05-10T03:00:45;47.90;;;22.67;;
72085;SDS011;64750;52.134;5.424;2023-05-10T03:03:12;54.65;;;24.00;;
72085;SDS011;64750;52.134;5.424;2023-05-10T03:05:38;54.75;;;23.73;;
72085;SDS011;64750;52.134;5.424;2023-05-10T03:08:05;57.97;;;24.43;;
72085;SDS011;64750;52.134;5.424;2023-05-10T03:10:32;58.45;;;24.50;;
72085;SDS011;64750;52.134;5.424;2023-05-10T03:18:22;62.33;;;26.48;;
72085;SDS011;64750;52.134;5.424;2023-05-10T03:20:57;59.10;;;26.30;;
72085;SDS011;64750;52.134;5.424;2023-05-10T03:23:47;57.40;;;25.15;;
72085;SDS011;64750;52.134;5.424;2023-05-10T03:26:20;58.63;;;25.17;;
72085;SDS011;64750;52.134;5.424;2023-05-10T03:28:51;60.50;;;26.23;;
72085;SDS011;64750;52.134;5.424;2023-05-10T03:31:19;54.03;;;23.67;;
72085;SDS011;64750;52.134;5.424;2023-05-10T03:33:47;62.87;;;23.90;;
72085;SDS011;64750;52.134;5.424;2023-05-10T03:36:16;56.60;;;22.65;;
72085;SDS011;64750;52.134;5.424;2023-05-10T03:38:43;59.63;;;25.17;;
72085;SDS011;64750;52.134;5.424;2023-05-10T03:41:10;63.05;;;24.55;;
72085;SDS011;64750;52.134;5.424;2023-05-10T03:43:37;66.15;;;24.02;;
72085;SDS011;64750;52.134;5.424;2023-05-10T03:46:04;55.83;;;22.77;;
72085;SDS011;64750;52.134;5.424;2023-05-10T03:48:31;59.53;;;23.75;;
72085;SDS011;64750;52.134;5.424;2023-05-10T03:50:58;56.85;;;23.35;;
72085;SDS011;64750;52.134;5.424;2023-05-10T03:53:25;52.28;;;22.88;;
72085;SDS011;64750;52.134;5.424;2023-05-10T03:55:52;62.50;;;23.98;;
72085;SDS011;64750;52.134;5.424;2023-05-10T03:58:19;58.10;;;24.23;;
72085;SDS011;64750;52.134;5.424;2023-05-10T04:00:45;59.63;;;23.73;;
72085;SDS011;64750;52.134;5.424;2023-05-10T04:03:12;52.58;;;23.05;;
72085;SDS011;64750;52.134;5.424;2023-05-10T04:05:39;57.25;;;24.30;;
72085;SDS011;64750;52.134;5.424;2023-05-10T04:08:06;57.60;;;24.13;;
72085;SDS011;64750;52.134;5.424;2023-05-10T04:10:32;59.33;;;23.50;;
72085;SDS011;64750;52.134;5.424;2023-05-10T04:12:58;60.05;;;23.83;;
72085;SDS011;64750;52.134;5.424;2023-05-10T04:15:25;57.08;;;23.95;;
72085;SDS011;64750;52.134;5.424;2023-05-10T04:17:51;57.88;;;22.92;;
72085;SDS011;64750;52.134;5.424;2023-05-10T04:20:18;61.63;;;23.67;;
72085;SDS011;64750;52.134;5.424;2023-05-10T04:22:44;52.80;;;22.50;;
72085;SDS011;64750;52.134;5.424;2023-05-10T04:25:11;59.67;;;22.83;;
72085;SDS011;64750;52.134;5.424;2023-05-10T04:27:37;58.58;;;23.20;;
72085;SDS011;64750;52.134;5.424;2023-05-10T04:30:04;55.88;;;22.55;;
72085;SDS011;64750;52.134;5.424;2023-05-10T04:32:31;54.47;;;22.73;;
72085;SDS011;64750;52.134;5.424;2023-05-10T04:34:57;52.97;;;21.90;;
72085;SDS011;64750;52.134;5.424;2023-05-10T04:37:24;54.13;;;22.58;;
72085;SDS011;64750;52.134;5.424;2023-05-10T04:39:50;57.25;;;22.35;;
72085;SDS011;64750;52.134;5.424;2023-05-10T04:42:17;58.30;;;24.02;;
72085;SDS011;64750;52.134;5.424;2023-05-10T04:44:43;52.97;;;23.42;;
72085;SDS011;64750;52.134;5.424;2023-05-10T04:47:10;57.10;;;24.10;;
72085;SDS011;64750;52.134;5.424;2023-05-10T04:49:38;55.60;;;21.73;;
72085;SDS011;64750;52.134;5.424;2023-05-10T04:52:04;58.83;;;23.73;;
72085;SDS011;64750;52.134;5.424;2023-05-10T04:54:30;57.78;;;22.80;;
72085;SDS011;64750;52.134;5.424;2023-05-10T04:56:57;60.42;;;23.60;;
72085;SDS011;64750;52.134;5.424;2023-05-10T04:59:23;54.10;;;22.23;;
72085;SDS011;64750;52.134;5.424;2023-05-10T05:01:50;59.72;;;22.88;;
72085;SDS011;64750;52.134;5.424;2023-05-10T05:04:16;59.50;;;23.50;;
72085;SDS011;64750;52.134;5.424;2023-05-10T05:06:43;63.70;;;23.63;;
72085;SDS011;64750;52.134;5.424;2023-05-10T05:09:09;59.65;;;23.42;;
72085;SDS011;64750;52.134;5.424;2023-05-10T05:11:36;59.13;;;24.33;;
72085;SDS011;64750;52.134;5.424;2023-05-10T05:14:02;59.08;;;23.58;;
72085;SDS011;64750;52.134;5.424;2023-05-10T05:16:30;64.32;;;23.80;;
72085;SDS011;64750;52.134;5.424;2023-05-10T05:18:57;63.28;;;23.80;;
72085;SDS011;64750;52.134;5.424;2023-05-10T05:21:23;64.47;;;24.83;;
72085;SDS011;64750;52.134;5.424;2023-05-10T05:23:51;59.23;;;23.33;;
72085;SDS011;64750;52.134;5.424;2023-05-10T05:26:17;57.42;;;24.63;;
72085;SDS011;64750;52.134;5.424;2023-05-10T05:28:43;66.93;;;25.80;;
72085;SDS011;64750;52.134;5.424;2023-05-10T05:31:10;60.38;;;23.98;;
72085;SDS011;64750;52.134;5.424;2023-05-10T05:33:36;62.13;;;24.40;;
72085;SDS011;64750;52.134;5.424;2023-05-10T05:36:03;55.60;;;23.47;;
72085;SDS011;64750;52.134;5.424;2023-05-10T05:38:31;54.95;;;24.05;;
72085;SDS011;64750;52.134;5.424;2023-05-10T05:40:58;60.88;;;23.33;;
72085;SDS011;64750;52.134;5.424;2023-05-10T05:43:24;54.60;;;23.30;;
72085;SDS011;64750;52.134;5.424;2023-05-10T05:45:54;54.58;;;23.83;;
72085;SDS011;64750;52.134;5.424;2023-05-10T05:48:22;53.80;;;22.87;;
72085;SDS011;64750;52.134;5.424;2023-05-10T05:50:48;59.10;;;24.23;;
72085;SDS011;64750;52.134;5.424;2023-05-10T05:53:14;60.08;;;25.08;;
72085;SDS011;64750;52.134;5.424;2023-05-10T05:55:54;52.33;;;23.08;;
72085;SDS011;64750;52.134;5.424;2023-05-10T05:58:23;49.45;;;22.25;;
72085;SDS011;64750;52.134;5.424;2023-05-10T06:00:50;51.40;;;21.63;;
72085;SDS011;64750;52.134;5.424;2023-05-10T06:03:18;51.60;;;22.73;;
72085;SDS011;64750;52.134;5.424;2023-05-10T06:05:45;46.97;;;21.42;;
72085;SDS011;64750;52.134;5.424;2023-05-10T06:08:11;50.50;;;21.88;;
72085;SDS011;64750;52.134;5.424;2023-05-10T06:10:38;46.22;;;21.10;;
72085;SDS011;64750;52.134;5.424;2023-05-10T06:13:04;40.83;;;20.13;;
72085;SDS011;64750;52.134;5.424;2023-05-10T06:15:31;43.03;;;20.55;;
72085;SDS011;64750;52.134;5.424;2023-05-10T06:17:58;45.95;;;22.88;;
72085;SDS011;64750;52.134;5.424;2023-05-10T06:20:25;46.20;;;20.63;;
72085;SDS011;64750;52.134;5.424;2023-05-10T06:22:51;45.75;;;20.63;;
72085;SDS011;64750;52.134;5.424;2023-05-10T06:25:17;47.17;;;21.73;;
72085;SDS011;64750;52.134;5.424;2023-05-10T06:27:44;40.33;;;19.77;;
72085;SDS011;64750;52.134;5.424;2023-05-10T06:30:17;50.97;;;22.08;;
72085;SDS011;64750;52.134;5.424;2023-05-10T06:32:43;48.05;;;21.35;;
72085;SDS011;64750;52.134;5.424;2023-05-10T06:35:11;48.22;;;20.48;;
72085;SDS011;64750;52.134;5.424;2023-05-10T06:37:37;47.10;;;19.90;;
72085;SDS011;64750;52.134;5.424;2023-05-10T06:40:04;43.67;;;18.88;;
72085;SDS011;64750;52.134;5.424;2023-05-10T06:42:32;39.25;;;18.73;;
72085;SDS011;64750;52.134;5.424;2023-05-10T06:44:58;39.80;;;17.60;;
72085;SDS011;64750;52.134;5.424;2023-05-10T06:47:24;33.65;;;16.58;;
72085;SDS011;64750;52.134;5.424;2023-05-10T06:49:51;37.73;;;16.63;;
72085;SDS011;64750;52.134;5.424;2023-05-10T06:52:17;32.58;;;16.42;;
72085;SDS011;64750;52.134;5.424;2023-05-10T06:54:43;33.65;;;16.63;;
72085;SDS011;64750;52.134;5.424;2023-05-10T06:57:10;29.02;;;14.32;;
72085;SDS011;64750;52.134;5.424;2023-05-10T06:59:56;27.95;;;13.20;;
72085;SDS011;64750;52.134;5.424;2023-05-10T07:02:22;28.23;;;13.10;;
72085;SDS011;64750;52.134;5.424;2023-05-10T07:04:49;24.65;;;12.95;;
72085;SDS011;64750;52.134;5.424;2023-05-10T07:07:16;20.20;;;11.90;;
72085;SDS011;64750;52.134;5.424;2023-05-10T07:09:42;20.02;;;10.45;;
72085;SDS011;64750;52.134;5.424;2023-05-10T07:12:09;17.02;;;9.52;;
72085;SDS011;64750;52.134;5.424;2023-05-10T07:14:39;14.77;;;9.70;;
72085;SDS011;64750;52.134;5.424;2023-05-10T07:17:05;15.57;;;9.30;;
72085;SDS011;64750;52.134;5.424;2023-05-10T07:19:32;17.35;;;9.60;;
72085;SDS011;64750;52.134;5.424;2023-05-10T07:21:58;19.63;;;9.02;;
72085;SDS011;64750;52.134;5.424;2023-05-10T07:24:25;13.70;;;9.30;;
72085;SDS011;64750;52.134;5.424;2023-05-10T07:26:51;16.63;;;9.17;;
72085;SDS011;64750;52.134;5.424;2023-05-10T07:29:18;16.23;;;9.27;;
72085;SDS011;64750;52.134;5.424;2023-05-10T07:31:44;10.60;;;8.15;;
72085;SDS011;64750;52.134;5.424;2023-05-10T07:34:10;10.38;;;8.52;;
72085;SDS011;64750;52.134;5.424;2023-05-10T07:36:37;10.77;;;8.05;;
72085;SDS011;64750;52.134;5.424;2023-05-10T07:39:03;15.83;;;9.20;;
72085;SDS011;64750;52.134;5.424;2023-05-10T07:41:30;13.10;;;8.65;;
72085;SDS011;64750;52.134;5.424;2023-05-10T07:43:56;10.07;;;8.77;;
72085;SDS011;64750;52.134;5.424;2023-05-10T07:46:23;14.18;;;8.52;;
72085;SDS011;64750;52.134;5.424;2023-05-10T07:48:49;15.68;;;8.13;;
72085;SDS011;64750;52.134;5.424;2023-05-10T07:51:16;12.17;;;8.70;;
72085;SDS011;64750;52.134;5.424;2023-05-10T07:53:42;14.18;;;9.57;;
72085;SDS011;64750;52.134;5.424;2023-05-10T07:56:27;17.38;;;9.50;;
72085;SDS011;64750;52.134;5.424;2023-05-10T07:58:56;14.73;;;8.30;;
72085;SDS011;64750;52.134;5.424;2023-05-10T08:01:22;14.27;;;8.98;;
72085;SDS011;64750;52.134;5.424;2023-05-10T08:03:49;16.93;;;9.63;;
72085;SDS011;64750;52.134;5.424;2023-05-10T08:06:17;13.77;;;9.20;;
72085;SDS011;64750;52.134;5.424;2023-05-10T08:08:45;12.05;;;8.05;;
72085;SDS011;64750;52.134;5.424;2023-05-10T08:11:18;13.63;;;8.02;;
72085;SDS011;64750;52.134;5.424;2023-05-10T08:13:46;11.65;;;7.85;;
72085;SDS011;64750;52.134;5.424;2023-05-10T08:16:14;12.57;;;8.60;;
72085;SDS011;64750;52.134;5.424;2023-05-10T08:18:40;11.55;;;7.53;;
72085;SDS011;64750;52.134;5.424;2023-05-10T08:21:07;12.27;;;7.53;;
72085;SDS011;64750;52.134;5.424;2023-05-10T08:23:33;11.13;;;8.45;;
72085;SDS011;64750;52.134;5.424;2023-05-10T08:26:00;10.43;;;7.85;;
72085;SDS011;64750;52.134;5.424;2023-05-10T08:28:26;10.53;;;8.50;;
72085;SDS011;64750;52.134;5.424;2023-05-10T08:30:53;10.88;;;8.82;;
72085;SDS011;64750;52.134;5.424;2023-05-10T08:33:19;13.25;;;8.50;;
72085;SDS011;64750;52.134;5.424;2023-05-10T08:35:46;12.35;;;8.82;;
72085;SDS011;64750;52.134;5.424;2023-05-10T08:38:13;12.63;;;8.43;;
72085;SDS011;64750;52.134;5.424;2023-05-10T08:40:41;14.17;;;8.67;;
72085;SDS011;64750;52.134;5.424;2023-05-10T08:43:11;14.15;;;8.77;;
72085;SDS011;64750;52.134;5.424;2023-05-10T08:45:39;10.93;;;8.25;;
72085;SDS011;64750;52.134;5.424;2023-05-10T08:48:08;12.10;;;9.25;;
72085;SDS011;64750;52.134;5.424;2023-05-10T08:50:37;12.02;;;9.43;;
72085;SDS011;64750;52.134;5.424;2023-05-10T08:53:12;17.03;;;9.63;;
72085;SDS011;64750;52.134;5.424;2023-05-10T08:55:39;14.43;;;10.25;;
72085;SDS011;64750;52.134;5.424;2023-05-10T08:58:08;14.85;;;10.00;;
72085;SDS011;64750;52.134;5.424;2023-05-10T09:00:35;11.07;;;9.18;;
72085;SDS011;64750;52.134;5.424;2023-05-10T09:03:03;13.60;;;9.43;;
72085;SDS011;64750;52.134;5.424;2023-05-10T09:05:31;12.30;;;8.13;;
72085;SDS011;64750;52.134;5.424;2023-05-10T09:07:58;11.63;;;7.90;;
72085;SDS011;64750;52.134;5.424;2023-05-10T09:10:26;12.18;;;7.93;;
72085;SDS011;64750;52.134;5.424;2023-05-10T09:12:55;8.57;;;7.68;;
72085;SDS011;64750;52.134;5.424;2023-05-10T09:15:24;10.32;;;7.18;;
72085;SDS011;64750;52.134;5.424;2023-05-10T09:17:51;10.17;;;6.83;;
72085;SDS011;64750;52.134;5.424;2023-05-10T09:20:18;8.57;;;7.25;;
72085;SDS011;64750;52.134;5.424;2023-05-10T09:22:45;8.48;;;6.57;;
72085;SDS011;64750;52.134;5.424;2023-05-10T09:25:14;9.00;;;6.53;;
72085;SDS011;64750;52.134;5.424;2023-05-10T09:27:44;5.57;;;4.68;;
72085;SDS011;64750;52.134;5.424;2023-05-10T09:30:30;4.77;;;4.27;;
72085;SDS011;64750;52.134;5.424;2023-05-10T09:32:58;4.95;;;3.88;;
72085;SDS011;64750;52.134;5.424;2023-05-10T09:35:26;4.75;;;4.28;;
72085;SDS011;64750;52.134;5.424;2023-05-10T09:37:55;4.13;;;3.30;;
72085;SDS011;64750;52.134;5.424;2023-05-10T09:40:24;7.00;;;3.70;;
72085;SDS011;64750;52.134;5.424;2023-05-10T09:45:26;3.47;;;3.20;;
72085;SDS011;64750;52.134;5.424;2023-05-10T09:47:54;6.30;;;3.08;;
72085;SDS011;64750;52.134;5.424;2023-05-10T09:50:22;6.10;;;3.20;;
72085;SDS011;64750;52.134;5.424;2023-05-10T09:52:52;3.65;;;3.35;;
72085;SDS011;64750;52.134;5.424;2023-05-10T09:55:38;3.67;;;3.37;;
72085;SDS011;64750;52.134;5.424;2023-05-10T09:58:11;7.00;;;4.07;;
72085;SDS011;64750;52.134;5.424;2023-05-10T10:00:39;6.47;;;4.50;;
72085;SDS011;64750;52.134;5.424;2023-05-10T10:03:12;6.93;;;4.13;;
72085;SDS011;64750;52.134;5.424;2023-05-10T10:05:42;4.90;;;4.50;;
72085;SDS011;64750;52.134;5.424;2023-05-10T10:08:10;6.83;;;4.23;;
72085;SDS011;64750;52.134;5.424;2023-05-10T10:10:38;5.20;;;4.10;;
72085;SDS011;64750;52.134;5.424;2023-05-10T10:13:06;4.72;;;4.15;;
72085;SDS011;64750;52.134;5.424;2023-05-10T10:15:34;5.80;;;4.60;;
72085;SDS011;64750;52.134;5.424;2023-05-10T10:18:01;6.03;;;4.40;;
72085;SDS011;64750;52.134;5.424;2023-05-10T10:20:29;5.67;;;4.67;;
72085;SDS011;64750;52.134;5.424;2023-05-10T10:22:56;4.47;;;4.07;;
72085;SDS011;64750;52.134;5.424;2023-05-10T10:25:23;5.22;;;4.03;;
72085;SDS011;64750;52.134;5.424;2023-05-10T10:30:23;5.45;;;4.20;;
72085;SDS011;64750;52.134;5.424;2023-05-10T10:32:59;4.47;;;4.07;;
72085;SDS011;64750;52.134;5.424;2023-05-10T10:35:53;5.20;;;4.78;;
72085;SDS011;64750;52.134;5.424;2023-05-10T10:38:21;5.07;;;4.38;;
72085;SDS011;64750;52.134;5.424;2023-05-10T10:40:48;5.32;;;4.82;;
72085;SDS011;64750;52.134;5.424;2023-05-10T10:43:28;6.63;;;4.90;;
72085;SDS011;64750;52.134;5.424;2023-05-10T10:49:16;6.07;;;5.47;;
72085;SDS011;64750;52.134;5.424;2023-05-10T10:51:39;5.32;;;4.75;;
72085;SDS011;64750;52.134;5.424;2023-05-10T10:54:09;5.47;;;4.97;;
72085;SDS011;64750;52.134;5.424;2023-05-10T10:56:36;5.97;;;4.40;;
72085;SDS011;64750;52.134;5.424;2023-05-10T10:59:02;5.17;;;4.50;;
72085;SDS011;64750;52.134;5.424;2023-05-10T11:01:33;8.27;;;5.07;;
72085;SDS011;64750;52.134;5.424;2023-05-10T11:06:31;4.25;;;3.83;;
72085;SDS011;64750;52.134;5.424;2023-05-10T11:08:59;4.82;;;4.30;;
72085;SDS011;64750;52.134;5.424;2023-05-10T11:11:32;6.70;;;4.10;;
72085;SDS011;64750;52.134;5.424;2023-05-10T11:14:04;5.55;;;4.32;;
72085;SDS011;64750;52.134;5.424;2023-05-10T11:16:44;4.78;;;4.38;;
72085;SDS011;64750;52.134;5.424;2023-05-10T11:19:11;4.40;;;4.00;;
72085;SDS011;64750;52.134;5.424;2023-05-10T11:24:14;4.37;;;3.97;;
72085;SDS011;64750;52.134;5.424;2023-05-10T11:26:45;6.32;;;4.55;;
72085;SDS011;64750;52.134;5.424;2023-05-10T11:29:12;4.55;;;3.88;;
72085;SDS011;64750;52.134;5.424;2023-05-10T11:31:43;4.72;;;4.28;;
72085;SDS011;64750;52.134;5.424;2023-05-10T11:34:11;4.75;;;4.25;;
72085;SDS011;64750;52.134;5.424;2023-05-10T11:36:38;6.33;;;4.20;;
72085;SDS011;64750;52.134;5.424;2023-05-10T11:39:05;4.95;;;4.47;;
72085;SDS011;64750;52.134;5.424;2023-05-10T11:41:32;4.28;;;3.78;;
72085;SDS011;64750;52.134;5.424;2023-05-10T11:43:58;4.80;;;4.30;;
72085;SDS011;64750;52.134;5.424;2023-05-10T11:46:26;4.40;;;4.03;;
72085;SDS011;64750;52.134;5.424;2023-05-10T11:48:55;4.83;;;3.60;;
72085;SDS011;64750;52.134;5.424;2023-05-10T11:51:24;4.70;;;3.75;;
72085;SDS011;64750;52.134;5.424;2023-05-10T11:53:55;3.60;;;3.20;;
72085;SDS011;64750;52.134;5.424;2023-05-10T11:56:22;4.22;;;3.10;;
72085;SDS011;64750;52.134;5.424;2023-05-10T11:58:53;4.63;;;3.17;;
72085;SDS011;64750;52.134;5.424;2023-05-10T12:01:21;9.07;;;4.43;;
72085;SDS011;64750;52.134;5.424;2023-05-10T12:03:49;9.15;;;3.65;;
72085;SDS011;64750;52.134;5.424;2023-05-10T12:06:17;3.38;;;2.60;;
72085;SDS011;64750;52.134;5.424;2023-05-10T12:08:45;4.55;;;2.83;;
72085;SDS011;64750;52.134;5.424;2023-05-10T12:11:13;6.93;;;3.13;;
72085;SDS011;64750;52.134;5.424;2023-05-10T12:13:42;6.63;;;3.03;;
72085;SDS011;64750;52.134;5.424;2023-05-10T12:16:16;3.40;;;2.50;;
72085;SDS011;64750;52.134;5.424;2023-05-10T12:18:44;4.53;;;2.38;;
72085;SDS011;64750;52.134;5.424;2023-05-10T12:21:12;4.03;;;2.45;;
72085;SDS011;64750;52.134;5.424;2023-05-10T12:23:39;2.47;;;1.98;;
72085;SDS011;64750;52.134;5.424;2023-05-10T12:26:05;3.10;;;2.20;;
72085;SDS011;64750;52.134;5.424;2023-05-10T12:28:32;2.53;;;2.30;;
72085;SDS011;64750;52.134;5.424;2023-05-10T12:30:59;2.33;;;2.13;;
72085;SDS011;64750;52.134;5.424;2023-05-10T12:33:26;5.90;;;2.67;;
72085;SDS011;64750;52.134;5.424;2023-05-10T12:35:53;2.67;;;2.45;;
72085;SDS011;64750;52.134;5.424;2023-05-10T12:38:36;2.67;;;2.47;;
72085;SDS011;64750;52.134;5.424;2023-05-10T12:41:07;4.18;;;2.13;;
72085;SDS011;64750;52.134;5.424;2023-05-10T12:43:35;1.98;;;1.77;;
72085;SDS011;64750;52.134;5.424;2023-05-10T12:46:06;3.22;;;1.73;;
72085;SDS011;64750;52.134;5.424;2023-05-10T12:48:32;4.30;;;2.25;;
72085;SDS011;64750;52.134;5.424;2023-05-10T12:51:00;2.40;;;2.20;;
72085;SDS011;64750;52.134;5.424;2023-05-10T12:53:28;3.38;;;1.80;;
72085;SDS011;64750;52.134;5.424;2023-05-10T12:55:54;2.10;;;1.90;;
72085;SDS011;64750;52.134;5.424;2023-05-10T12:58:21;1.88;;;1.77;;
72085;SDS011;64750;52.134;5.424;2023-05-10T13:00:52;2.42;;;2.10;;
72085;SDS011;64750;52.134;5.424;2023-05-10T13:03:19;2.27;;;1.80;;
72085;SDS011;64750;52.134;5.424;2023-05-10T13:05:46;2.67;;;2.47;;
72085;SDS011;64750;52.134;5.424;2023-05-10T13:08:12;2.17;;;1.98;;
72085;SDS011;64750;52.134;5.424;2023-05-10T13:10:38;1.75;;;1.60;;
72085;SDS011;64750;52.134;5.424;2023-05-10T13:13:06;3.03;;;2.00;;
72085;SDS011;64750;52.134;5.424;2023-05-10T13:15:34;3.10;;;2.00;;
72085;SDS011;64750;52.134;5.424;2023-05-10T13:18:00;4.82;;;1.98;;
72085;SDS011;64750;52.134;5.424;2023-05-10T13:20:27;4.55;;;1.95;;
72085;SDS011;64750;52.134;5.424;2023-05-10T13:22:53;3.30;;;2.60;;
72085;SDS011;64750;52.134;5.424;2023-05-10T13:25:20;3.97;;;3.35;;
72085;SDS011;64750;52.134;5.424;2023-05-10T13:27:46;4.87;;;3.87;;
72085;SDS011;64750;52.134;5.424;2023-05-10T13:30:13;6.55;;;4.20;;
72085;SDS011;64750;52.134;5.424;2023-05-10T13:32:39;5.25;;;4.40;;
72085;SDS011;64750;52.134;5.424;2023-05-10T13:35:06;5.60;;;4.10;;
72085;SDS011;64750;52.134;5.424;2023-05-10T13:37:33;4.80;;;4.18;;
72085;SDS011;64750;52.134;5.424;2023-05-10T13:40:03;4.50;;;3.90;;
72085;SDS011;64750;52.134;5.424;2023-05-10T13:42:30;6.10;;;4.15;;
72085;SDS011;64750;52.134;5.424;2023-05-10T13:44:59;4.75;;;3.90;;
72085;SDS011;64750;52.134;5.424;2023-05-10T13:47:27;6.00;;;4.32;;
72085;SDS011;64750;52.134;5.424;2023-05-10T13:49:54;6.28;;;4.10;;
72085;SDS011;64750;52.134;5.424;2023-05-10T13:52:20;7.03;;;4.20;;
72085;SDS011;64750;52.134;5.424;2023-05-10T13:54:47;6.47;;;4.18;;
72085;SDS011;64750;52.134;5.424;2023-05-10T13:57:13;7.05;;;4.70;;
72085;SDS011;64750;52.134;5.424;2023-05-10T13:59:40;6.82;;;4.32;;
72085;SDS011;64750;52.134;5.424;2023-05-10T14:02:06;6.57;;;4.65;;
72085;SDS011;64750;52.134;5.424;2023-05-10T14:04:32;5.50;;;4.60;;
72085;SDS011;64750;52.134;5.424;2023-05-10T14:07:01;5.53;;;4.45;;
72085;SDS011;64750;52.134;5.424;2023-05-10T14:09:27;7.30;;;4.68;;
72085;SDS011;64750;52.134;5.424;2023-05-10T14:11:54;6.25;;;4.78;;
72085;SDS011;64750;52.134;5.424;2023-05-10T14:14:21;8.18;;;4.68;;
72085;SDS011;64750;52.134;5.424;2023-05-10T14:16:48;5.97;;;4.87;;
72085;SDS011;64750;52.134;5.424;2023-05-10T14:19:15;5.72;;;4.82;;
72085;SDS011;64750;52.134;5.424;2023-05-10T14:21:41;5.57;;;4.50;;
72085;SDS011;64750;52.134;5.424;2023-05-10T14:24:09;6.85;;;4.65;;
72085;SDS011;64750;52.134;5.424;2023-05-10T14:26:35;6.00;;;4.65;;
72085;SDS011;64750;52.134;5.424;2023-05-10T14:29:02;6.33;;;4.97;;
72085;SDS011;64750;52.134;5.424;2023-05-10T14:31:28;5.50;;;4.97;;
72085;SDS011;64750;52.134;5.424;2023-05-10T14:33:56;7.82;;;5.05;;
72085;SDS011;64750;52.134;5.424;2023-05-10T14:36:23;5.05;;;4.38;;
72085;SDS011;64750;52.134;5.424;2023-05-10T14:38:50;6.60;;;5.18;;
72085;SDS011;64750;52.134;5.424;2023-05-10T14:41:17;7.57;;;5.63;;
72085;SDS011;64750;52.134;5.424;2023-05-10T14:43:43;5.82;;;4.65;;
72085;SDS011;64750;52.134;5.424;2023-05-10T14:46:10;5.78;;;5.18;;
72085;SDS011;64750;52.134;5.424;2023-05-10T14:48:36;6.15;;;5.18;;
72085;SDS011;64750;52.134;5.424;2023-05-10T14:51:03;6.55;;;5.20;;
72085;SDS011;64750;52.134;5.424;2023-05-10T14:53:29;7.83;;;5.70;;
72085;SDS011;64750;52.134;5.424;2023-05-10T14:55:56;7.43;;;5.10;;
72085;SDS011;64750;52.134;5.424;2023-05-10T14:58:23;8.00;;;5.07;;
72085;SDS011;64750;52.134;5.424;2023-05-10T15:00:49;7.88;;;5.25;;
72085;SDS011;64750;52.134;5.424;2023-05-10T15:03:16;9.43;;;5.95;;
72085;SDS011;64750;52.134;5.424;2023-05-10T15:05:43;7.57;;;5.70;;
72085;SDS011;64750;52.134;5.424;2023-05-10T15:08:10;5.43;;;4.68;;
72085;SDS011;64750;52.134;5.424;2023-05-10T15:10:38;9.35;;;5.60;;
72085;SDS011;64750;52.134;5.424;2023-05-10T15:13:05;7.40;;;6.18;;